createdAt,value
2023-04-06T03:02:00.639Z,50.69
2023-04-06T03:04:29.201Z,50.92
2023-04-06T03:06:59.462Z,50.76
2023-04-06T03:09:38.416Z,50.75
2023-04-06T03:12:10.183Z,51.01
2023-04-06T03:14:56.317Z,51.22
2023-04-06T03:17:24.716Z,51.09
2023-04-06T03:19:53.158Z,51.15
2023-04-06T03:22:23.024Z,51.07
2023-04-06T03:24:51.604Z,51.09
2023-04-06T03:27:23.131Z,51.27
2023-04-06T03:29:52.593Z,51.30
2023-04-06T03:32:25.973Z,51.32
2023-04-06T03:34:54.730Z,51.39
2023-04-06T03:37:25.290Z,51.58
2023-04-06T03:39:55.520Z,51.57
2023-04-06T03:42:24.959Z,51.61
2023-04-06T03:44:57.851Z,51.64
2023-04-06T03:47:26.755Z,51.74
2023-04-06T03:49:59.277Z,51.64
2023-04-06T03:52:27.908Z,51.56
2023-04-06T03:54:56.312Z,51.84
2023-04-06T03:57:24.553Z,51.65
2023-04-06T03:59:52.855Z,51.76
2023-04-06T04:02:21.120Z,51.85
2023-04-06T04:04:49.587Z,51.81
2023-04-06T04:07:18.081Z,52.15
2023-04-06T04:09:46.508Z,52.15
2023-04-06T04:12:15.898Z,52.14
2023-04-06T04:14:45.052Z,52.08
2023-04-06T04:17:13.567Z,52.15
2023-04-06T04:19:44.797Z,52.24
2023-04-06T04:22:13.022Z,52.18
2023-04-06T04:24:41.730Z,52.21
2023-04-06T04:27:11.197Z,52.21
2023-04-06T04:29:39.547Z,52.24
2023-04-06T04:32:09.760Z,52.19
2023-04-06T04:34:41.325Z,52.05
2023-04-06T04:37:11.653Z,52.28
2023-04-06T04:39:48.330Z,52.61
2023-04-06T04:42:17.458Z,52.30
2023-04-06T04:44:49.779Z,52.64
2023-04-06T04:47:23.344Z,52.41
2023-04-06T04:49:53.747Z,52.60
2023-04-06T04:52:24.021Z,52.42
2023-04-06T04:55:15.081Z,52.61
2023-04-06T04:57:44.352Z,52.44
2023-04-06T05:00:12.911Z,52.39
2023-04-06T05:02:42.725Z,52.62
2023-04-06T05:05:37.495Z,52.60
2023-04-06T05:08:07.322Z,52.58
2023-04-06T05:10:49.846Z,52.59
2023-04-06T05:13:19.313Z,52.68
2023-04-06T05:15:48.790Z,52.66
2023-04-06T05:18:26.085Z,52.50
2023-04-06T05:20:54.975Z,52.91
2023-04-06T05:23:29.411Z,52.85
2023-04-06T05:25:59.677Z,52.80
2023-04-06T05:28:28.562Z,52.78
2023-04-06T05:30:58.577Z,52.61
2023-04-06T05:33:30.912Z,52.64
2023-04-06T05:36:13.761Z,52.70
2023-04-06T05:38:45.804Z,52.93
2023-04-06T05:41:43.252Z,52.82
2023-04-06T05:44:12.395Z,52.85
2023-04-06T05:46:41.754Z,53.06
2023-04-06T05:49:13.988Z,53.21
2023-04-06T05:51:42.558Z,53.03
2023-04-06T05:54:11.737Z,53.36
2023-04-06T05:56:40.522Z,53.13
2023-04-06T05:59:11.465Z,53.03
2023-04-06T06:01:40.345Z,52.98
2023-04-06T06:04:09.677Z,53.33
2023-04-06T06:06:40.369Z,52.98
2023-04-06T06:09:14.928Z,53.26
2023-04-06T06:11:50.001Z,53.19
2023-04-06T06:14:18.976Z,53.05
2023-04-06T06:16:47.833Z,53.26
2023-04-06T06:19:17.240Z,53.13
2023-04-06T06:21:46.283Z,53.29
2023-04-06T06:24:14.857Z,53.11
2023-04-06T06:26:44.750Z,53.06
2023-04-06T06:29:14.226Z,53.11
2023-04-06T06:31:42.765Z,53.06
2023-04-06T06:34:11.996Z,52.89
2023-04-06T06:36:41.431Z,53.23
2023-04-06T06:39:11.423Z,53.08
2023-04-06T06:41:41.030Z,53.28
2023-04-06T06:44:10.600Z,53.01
2023-04-06T06:46:38.932Z,53.04
2023-04-06T06:49:08.576Z,53.05
2023-04-06T06:51:40.698Z,52.97
2023-04-06T06:54:10.044Z,52.98
2023-04-06T06:56:39.628Z,52.91
2023-04-06T06:59:09.214Z,52.64
2023-04-06T07:01:38.355Z,52.86
2023-04-06T07:04:09.335Z,52.75
2023-04-06T07:06:38.367Z,52.56
2023-04-06T07:09:09.812Z,52.39
2023-04-06T07:11:38.208Z,52.58
2023-04-06T07:14:08.442Z,52.66
2023-04-06T07:16:37.651Z,52.38
2023-04-06T07:19:06.795Z,52.43
2023-04-06T07:21:35.922Z,52.64
2023-04-06T07:24:04.352Z,52.68
2023-04-06T07:26:33.145Z,52.29
2023-04-06T07:29:01.759Z,51.99
2023-04-06T07:31:31.243Z,52.32
2023-04-06T07:34:00.022Z,52.60
2023-04-06T07:36:28.194Z,52.76
2023-04-06T07:38:56.898Z,52.53
2023-04-06T07:41:26.277Z,51.87
2023-04-06T07:43:54.544Z,52.10
2023-04-06T07:46:23.557Z,52.22
2023-04-06T07:48:53.210Z,52.24
2023-04-06T07:51:21.571Z,52.12
2023-04-06T07:53:51.980Z,51.99
2023-04-06T07:56:20.330Z,51.94
2023-04-06T07:58:49.957Z,52.06
2023-04-06T08:01:19.293Z,51.99
2023-04-06T08:03:48.453Z,51.95
2023-04-06T08:06:18.235Z,51.58
2023-04-06T08:08:47.067Z,51.61
2023-04-06T08:11:34.767Z,51.71
2023-04-06T08:14:03.078Z,51.68
2023-04-06T08:16:32.150Z,51.89
2023-04-06T08:19:03.840Z,51.80
2023-04-06T08:21:32.043Z,51.50
2023-04-06T08:24:02.232Z,51.72
2023-04-06T08:26:32.215Z,51.75
2023-04-06T08:29:00.820Z,51.42
2023-04-06T08:31:45.142Z,51.51
2023-04-06T08:34:39.817Z,51.56
2023-04-06T08:37:52.154Z,51.83
2023-04-06T08:40:20.150Z,51.66
2023-04-06T08:42:52.159Z,51.68
2023-04-06T08:45:22.604Z,51.73
2023-04-06T08:47:54.308Z,51.79
2023-04-06T08:50:23.063Z,51.80
2023-04-06T08:52:51.394Z,51.78
2023-04-06T08:55:20.289Z,51.64
2023-04-06T08:57:49.394Z,51.57
2023-04-06T09:00:17.851Z,51.66
2023-04-06T09:02:48.052Z,51.53
2023-04-06T09:05:16.676Z,51.57
2023-04-06T09:07:47.431Z,51.61
2023-04-06T09:10:16.741Z,51.78
2023-04-06T09:12:46.407Z,51.68
2023-04-06T09:15:24.111Z,51.68
2023-04-06T09:17:55.990Z,51.53
2023-04-06T09:20:28.995Z,51.53
2023-04-06T09:22:57.829Z,51.63
2023-04-06T09:25:29.368Z,51.81
2023-04-06T09:28:02.049Z,51.67
2023-04-06T09:30:30.152Z,51.85
2023-04-06T09:33:00.936Z,51.77
2023-04-06T09:35:31.550Z,51.62
2023-04-06T09:38:00.070Z,51.68
2023-04-06T09:40:30.601Z,51.87
2023-04-06T09:43:01.291Z,51.73
2023-04-06T09:45:32.376Z,51.81
2023-04-06T09:48:01.397Z,51.72
2023-04-06T09:50:31.801Z,51.75
2023-04-06T09:53:01.294Z,51.22
2023-04-06T09:55:36.808Z,51.59
2023-04-06T09:58:07.070Z,51.48
2023-04-06T10:00:46.237Z,51.41
2023-04-06T10:03:15.051Z,51.61
2023-04-06T10:05:44.544Z,51.39
2023-04-06T10:08:14.018Z,51.53
2023-04-06T10:10:43.560Z,51.71
2023-04-06T10:13:16.779Z,51.47
2023-04-06T10:15:46.712Z,51.07
2023-04-06T10:18:19.295Z,51.11
2023-04-06T10:20:51.746Z,51.44
2023-04-06T10:23:35.672Z,51.48
2023-04-06T10:26:08.846Z,51.55
2023-04-06T10:28:38.413Z,51.35
2023-04-06T10:31:07.306Z,51.35
2023-04-06T10:33:35.987Z,51.21
2023-04-06T10:36:12.040Z,51.40
2023-04-06T10:38:42.156Z,51.35
2023-04-06T10:41:14.840Z,51.30
2023-04-06T10:43:44.041Z,51.48
2023-04-06T10:46:13.444Z,51.23
2023-04-06T10:48:42.675Z,51.48
2023-04-06T10:51:12.603Z,51.19
2023-04-06T10:53:43.730Z,51.08
2023-04-06T10:56:16.213Z,51.34
2023-04-06T10:58:52.916Z,51.33
2023-04-06T11:01:22.865Z,51.35
2023-04-06T11:03:52.972Z,51.25
2023-04-06T11:06:21.694Z,51.52
2023-04-06T11:08:50.760Z,51.56
2023-04-06T11:11:20.215Z,51.49
2023-04-06T11:13:50.845Z,51.47
2023-04-06T11:16:21.407Z,51.62
2023-04-06T11:18:52.958Z,51.51
2023-04-06T11:21:45.206Z,51.53
2023-04-06T11:24:14.944Z,51.55
2023-04-06T11:26:46.106Z,51.47
2023-04-06T11:29:15.034Z,51.52
2023-04-06T11:31:46.816Z,51.65
2023-04-06T11:34:19.741Z,51.59
2023-04-06T11:36:49.739Z,51.79
2023-04-06T11:39:22.520Z,51.95
2023-04-06T11:41:52.071Z,51.94
2023-04-06T11:44:36.256Z,51.98
2023-04-06T11:47:06.509Z,52.36
2023-04-06T11:49:37.439Z,52.35
2023-04-06T11:52:26.492Z,52.32
2023-04-06T11:54:56.253Z,52.64
2023-04-06T11:57:29.626Z,52.60
2023-04-06T11:59:57.584Z,52.60
2023-04-06T12:02:26.916Z,52.54
2023-04-06T12:04:55.697Z,52.80
2023-04-06T12:07:24.825Z,52.90
2023-04-06T12:09:53.812Z,52.85
2023-04-06T12:12:22.872Z,52.94
2023-04-06T12:14:51.876Z,53.01
2023-04-06T12:17:22.295Z,53.18
2023-04-06T12:19:51.479Z,53.17
2023-04-06T12:22:20.894Z,53.13
2023-04-06T12:24:49.060Z,53.35
2023-04-06T12:27:17.915Z,53.28
2023-04-06T12:29:46.604Z,53.31
2023-04-06T12:32:15.307Z,53.28
2023-04-06T12:34:43.618Z,53.30
2023-04-06T12:37:12.614Z,53.46
2023-04-06T12:39:41.077Z,53.39
2023-04-06T12:42:10.725Z,53.22
2023-04-06T12:44:39.798Z,53.42
2023-04-06T12:47:08.962Z,53.55
2023-04-06T12:49:37.721Z,53.54
2023-04-06T12:52:05.764Z,53.79
2023-04-06T12:54:34.548Z,53.84
2023-04-06T12:57:03.598Z,54.02
2023-04-06T12:59:36.937Z,53.91
2023-04-06T13:02:06.227Z,53.94
2023-04-06T13:04:34.889Z,54.02
2023-04-06T13:07:03.595Z,54.16
2023-04-06T13:09:32.516Z,54.19
2023-04-06T13:12:01.143Z,54.23
2023-04-06T13:14:30.089Z,54.37
2023-04-06T13:16:59.114Z,54.28
2023-04-06T13:19:27.875Z,54.43
2023-04-06T13:21:57.100Z,54.19
2023-04-06T13:24:26.148Z,54.24
2023-04-06T13:26:54.651Z,54.42
2023-04-06T13:29:23.514Z,54.53
2023-04-06T13:31:52.469Z,54.36
2023-04-06T13:34:20.874Z,54.50
2023-04-06T13:36:49.779Z,54.54
2023-04-06T13:39:18.717Z,54.21
2023-04-06T13:41:46.756Z,54.41
2023-04-06T13:44:15.674Z,54.42
2023-04-06T13:46:44.930Z,54.27
2023-04-06T13:49:13.912Z,54.30
2023-04-06T13:51:43.952Z,54.32
2023-04-06T13:54:12.508Z,54.07
2023-04-06T13:56:40.810Z,54.25
2023-04-06T13:59:08.975Z,54.15
2023-04-06T14:01:38.412Z,54.07
2023-04-06T14:04:10.443Z,54.08
2023-04-06T14:06:40.183Z,53.93
2023-04-06T14:09:08.791Z,53.96
2023-04-06T14:11:40.391Z,54.03
2023-04-06T14:14:12.797Z,53.93
2023-04-06T14:16:42.317Z,53.91
2023-04-06T14:19:11.559Z,53.76
2023-04-06T14:21:43.797Z,53.63
2023-04-06T14:24:13.598Z,53.84
2023-04-06T14:26:46.092Z,53.80
2023-04-06T14:29:14.842Z,53.87
2023-04-06T14:31:43.750Z,53.78
2023-04-06T14:34:12.756Z,53.79
2023-04-06T14:36:41.719Z,53.75
2023-04-06T14:39:11.121Z,53.76
2023-04-06T14:41:39.323Z,53.88
2023-04-06T14:44:13.938Z,53.78
2023-04-06T14:46:43.102Z,53.84
2023-04-06T14:49:11.980Z,53.75
2023-04-06T14:51:41.509Z,53.73
2023-04-06T14:54:10.324Z,53.93
2023-04-06T14:56:39.844Z,53.83
2023-04-06T14:59:07.922Z,53.87
2023-04-06T15:01:37.953Z,53.67
2023-04-06T15:04:07.364Z,53.77
2023-04-06T15:06:36.441Z,53.89
2023-04-06T15:09:05.281Z,53.94
2023-04-06T15:11:33.636Z,53.95
2023-04-06T15:14:03.059Z,54.15
2023-04-06T15:16:34.186Z,54.17
2023-04-06T15:19:03.252Z,54.36
2023-04-06T15:21:32.387Z,54.31
2023-04-06T15:24:00.727Z,54.42
2023-04-06T15:26:28.867Z,54.47
2023-04-06T15:28:57.839Z,54.57
2023-04-06T15:31:36.726Z,54.57
2023-04-06T15:34:09.658Z,54.40
2023-04-06T15:36:38.253Z,54.49
2023-04-06T15:39:10.084Z,54.48
2023-04-06T15:41:39.000Z,54.58
2023-04-06T15:44:07.216Z,54.73
2023-04-06T15:46:35.990Z,54.88
2023-04-06T15:49:04.615Z,54.98
2023-04-06T15:51:33.749Z,54.97
2023-04-06T15:54:02.016Z,54.94
2023-04-06T15:56:30.857Z,54.91
2023-04-06T15:59:00.458Z,54.87
2023-04-06T16:01:29.367Z,55.02
2023-04-06T16:03:58.325Z,54.96
2023-04-06T16:06:27.658Z,55.16
2023-04-06T16:08:56.478Z,55.05
2023-04-06T16:11:25.187Z,55.33
2023-04-06T16:13:55.478Z,55.34
2023-04-06T16:16:24.065Z,55.42
2023-04-06T16:18:52.829Z,55.31
2023-04-06T16:21:21.703Z,55.18
2023-04-06T16:23:50.617Z,55.47
2023-04-06T16:26:19.359Z,55.37
2023-04-06T16:28:48.083Z,55.40
2023-04-06T16:31:23.329Z,55.44
2023-04-06T16:33:56.639Z,55.54
2023-04-06T16:36:25.807Z,55.30
2023-04-06T16:38:55.231Z,55.50
2023-04-06T16:41:23.914Z,55.54
2023-04-06T16:43:53.723Z,55.57
2023-04-06T16:46:22.610Z,55.77
2023-04-06T16:48:51.116Z,55.95
2023-04-06T16:51:19.408Z,55.87
2023-04-06T16:53:48.377Z,56.46
2023-04-06T16:56:16.783Z,56.08
2023-04-06T16:58:46.255Z,55.94
2023-04-06T17:01:21.464Z,55.97
2023-04-06T17:03:50.875Z,56.19
2023-04-06T17:06:19.766Z,56.32
2023-04-06T17:08:48.439Z,56.66
2023-04-06T17:11:21.792Z,56.61
2023-04-06T17:13:54.145Z,56.24
2023-04-06T17:16:22.380Z,56.39
2023-04-06T17:18:50.714Z,56.51
2023-04-06T17:21:21.166Z,56.40
2023-04-06T17:23:49.344Z,56.62
2023-04-06T17:26:18.065Z,56.72
2023-04-06T17:28:46.184Z,56.87
2023-04-06T17:31:14.823Z,56.69
2023-04-06T17:33:43.049Z,56.72
2023-04-06T17:36:12.867Z,56.55
2023-04-06T17:38:44.350Z,56.90
2023-04-06T17:41:13.747Z,56.70
2023-04-06T17:43:42.564Z,56.95
2023-04-06T17:46:11.062Z,57.30
2023-04-06T17:48:39.869Z,56.98
2023-04-06T17:51:08.507Z,56.83
2023-04-06T17:53:37.438Z,56.99
2023-04-06T17:56:06.685Z,57.08
2023-04-06T17:58:38.386Z,57.05
2023-04-06T18:01:08.985Z,57.10
2023-04-06T18:03:37.836Z,56.94
2023-04-06T18:06:12.908Z,57.09
2023-04-06T18:08:41.955Z,57.26
2023-04-06T18:11:18.559Z,57.27
2023-04-06T18:13:47.047Z,57.29
2023-04-06T18:16:17.863Z,57.31
2023-04-06T18:18:46.267Z,57.07
2023-04-06T18:21:14.540Z,57.20
2023-04-06T18:23:42.744Z,57.48
2023-04-06T18:26:17.034Z,56.90
2023-04-06T18:28:45.841Z,57.48
2023-04-06T18:31:14.498Z,57.00
2023-04-06T18:33:42.621Z,57.26
2023-04-06T18:36:11.858Z,57.43
2023-04-06T18:38:49.549Z,57.30
2023-04-06T18:41:18.213Z,57.61
2023-04-06T18:43:46.535Z,57.26
2023-04-06T18:46:16.600Z,57.40
2023-04-06T18:48:45.711Z,57.23
2023-04-06T18:51:13.846Z,57.31
2023-04-06T18:53:42.322Z,57.26
2023-04-06T18:56:19.965Z,57.25
2023-04-06T18:58:49.408Z,57.73
2023-04-06T19:01:21.758Z,57.46
2023-04-06T19:03:50.024Z,57.23
2023-04-06T19:06:18.476Z,57.24
2023-04-06T19:08:48.043Z,57.34
2023-04-06T19:11:16.861Z,57.54
2023-04-06T19:13:50.396Z,57.72
2023-04-06T19:16:19.380Z,57.61
2023-04-06T19:18:48.119Z,57.50
2023-04-06T19:21:24.926Z,57.95
2023-04-06T19:23:58.304Z,57.78
2023-04-06T19:26:32.755Z,57.83
2023-04-06T19:29:04.589Z,57.93
2023-04-06T19:31:33.768Z,57.84
2023-04-06T19:34:02.916Z,58.13
2023-04-06T19:36:33.086Z,58.31
2023-04-06T19:39:01.881Z,58.36
2023-04-06T19:41:30.214Z,58.38
2023-04-06T19:43:58.263Z,58.26
2023-04-06T19:46:26.952Z,58.43
2023-04-06T19:48:55.609Z,58.40
2023-04-06T19:51:23.884Z,58.60
2023-04-06T19:53:52.473Z,58.44
2023-04-06T19:56:21.078Z,58.58
2023-04-06T19:58:49.907Z,58.75
2023-04-06T20:01:18.778Z,58.47
2023-04-06T20:03:47.806Z,58.56
2023-04-06T20:06:17.805Z,59.17
2023-04-06T20:08:47.384Z,59.02
2023-04-06T20:11:16.832Z,59.10
2023-04-06T20:13:45.085Z,59.23
2023-04-06T20:16:13.733Z,59.32
2023-04-06T20:18:42.216Z,59.25
2023-04-06T20:21:11.559Z,59.51
2023-04-06T20:23:40.192Z,59.41
2023-04-06T20:26:10.044Z,59.45
2023-04-06T20:28:39.865Z,59.28
2023-04-06T20:31:08.401Z,59.57
2023-04-06T20:33:37.114Z,59.77
2023-04-06T20:36:05.506Z,59.65
2023-04-06T20:38:34.182Z,59.79
2023-04-06T20:41:02.725Z,59.96
2023-04-06T20:43:31.995Z,59.95
2023-04-06T20:46:02.571Z,60.00
2023-04-06T20:48:33.664Z,60.00
2023-04-06T20:51:04.786Z,60.01
2023-04-06T20:53:33.451Z,59.79
2023-04-06T20:56:03.682Z,60.15
2023-04-06T20:58:32.651Z,60.13
2023-04-06T21:01:01.635Z,60.43
2023-04-06T21:03:31.177Z,60.42
2023-04-06T21:06:01.153Z,60.31
2023-04-06T21:08:30.196Z,60.64
2023-04-06T21:10:58.969Z,60.42
2023-04-06T21:13:28.150Z,60.30
2023-04-06T21:15:57.322Z,60.64
2023-04-06T21:18:25.544Z,60.71
2023-04-06T21:20:54.106Z,60.93
2023-04-06T21:23:23.691Z,61.16
2023-04-06T21:25:52.195Z,60.88
2023-04-06T21:28:20.526Z,60.87
2023-04-06T21:30:52.232Z,61.10
2023-04-06T21:33:21.043Z,61.06
2023-04-06T21:35:49.149Z,60.96
2023-04-06T21:38:17.344Z,61.27
2023-04-06T21:40:45.832Z,60.95
2023-04-06T21:43:14.262Z,61.21
2023-04-06T21:45:48.596Z,61.15
2023-04-06T21:48:17.570Z,61.26
2023-04-06T21:50:45.742Z,61.22
2023-04-06T21:53:14.465Z,61.24
2023-04-06T21:55:47.019Z,61.27
2023-04-06T21:58:16.394Z,61.40
2023-04-06T22:00:45.028Z,61.41
2023-04-06T22:03:13.950Z,61.56
2023-04-06T22:05:42.860Z,61.66
2023-04-06T22:08:17.892Z,61.56
2023-04-06T22:10:50.124Z,61.79
2023-04-06T22:13:18.746Z,61.54
2023-04-06T22:15:47.525Z,61.51
2023-04-06T22:18:16.378Z,61.85
2023-04-06T22:20:45.363Z,62.29
2023-04-06T22:23:14.343Z,61.92
2023-04-06T22:25:43.740Z,62.14
2023-04-06T22:28:12.126Z,62.31
2023-04-06T22:30:40.889Z,62.23
2023-04-06T22:33:09.473Z,62.34
2023-04-06T22:35:38.061Z,62.50
2023-04-06T22:38:06.856Z,62.69
2023-04-06T22:40:35.812Z,62.28
2023-04-06T22:43:04.581Z,62.27
2023-04-06T22:45:33.214Z,62.65
2023-04-06T22:48:01.783Z,62.44
2023-04-06T22:50:29.854Z,62.39
2023-04-06T22:52:58.585Z,63.02
2023-04-06T22:55:27.619Z,62.65
2023-04-06T22:57:56.429Z,62.71
2023-04-06T23:00:25.652Z,62.63
2023-04-06T23:02:54.487Z,62.91
2023-04-06T23:05:23.538Z,62.83
2023-04-06T23:07:52.710Z,63.30
2023-04-06T23:10:21.591Z,62.88
2023-04-06T23:12:50.139Z,63.16
2023-04-06T23:15:18.904Z,63.40
2023-04-06T23:17:47.342Z,62.97
2023-04-06T23:20:16.342Z,63.28
2023-04-06T23:22:45.248Z,63.31
2023-04-06T23:25:14.066Z,63.28
2023-04-06T23:27:42.744Z,63.19
2023-04-06T23:30:11.996Z,63.14
2023-04-06T23:32:41.049Z,63.55
2023-04-06T23:35:10.346Z,63.40
2023-04-06T23:37:39.177Z,63.62
2023-04-06T23:40:08.551Z,63.49
2023-04-06T23:42:37.888Z,63.98
2023-04-06T23:45:07.545Z,63.79
2023-04-06T23:47:36.009Z,63.44
2023-04-06T23:50:05.868Z,63.93
2023-04-06T23:52:38.074Z,63.62
2023-04-06T23:55:07.787Z,63.70
2023-04-06T23:57:36.356Z,64.09
